Time;durP1;ratioP1;P1;durP2;ratioP2;P2;SDS_P1;SDS_P2;PMS_P1;PMS_P2;Temp;Humidity;BMP_temperature;BMP_pressure;BME280_temperature;BME280_humidity;BME280_pressure;Samples;Min_cycle;Max_cycle;Signal;HPM_P1;HPM_P2
2021/01/05 00:01:50;;;;;;;;;;;1.30;99.90;;;;;;5094743;28;19924;-68
2021/01/05 00:04:16;;;;;;;;;;;1.30;99.90;;;;;;5082766;28;19931;-68
2021/01/05 00:06:43;;;;;;;;;;;1.30;99.90;;;;;;5075393;28;19931;-68
2021/01/05 00:09:09;;;;;;;;;;;1.30;99.90;;;;;;5094137;28;19969;-68
2021/01/05 00:11:35;;;;;;;;;;;1.30;99.90;;;;;;5095074;28;20296;-69
2021/01/05 00:14:01;;;;;;;;;;;1.30;99.90;;;;;;5095297;28;19931;-69
2021/01/05 00:16:28;;;;;;;;;;;1.30;99.90;;;;;;5095254;28;19924;-69
2021/01/05 00:18:54;;;;;;;;;;;1.30;99.90;;;;;;5095205;28;19935;-68
2021/01/05 00:21:20;;;;;;;;;;;1.30;99.90;;;;;;5095014;28;20297;-68
2021/01/05 00:23:46;;;;;;;;;;;1.30;99.90;;;;;;5094191;28;19924;-68
2021/01/05 00:26:13;;;;;;;;;;;1.30;99.90;;;;;;5095159;28;19924;-68
2021/01/05 00:28:39;;;;;;;;;;;1.30;99.90;;;;;;5095079;28;19924;-68
2021/01/05 00:31:04;;;;;;;;;;;1.30;99.90;;;;;;5094717;28;20308;-68
2021/01/05 00:33:34;;;;;;;;;;;1.30;99.90;;;;;;5094936;28;19978;-68
2021/01/05 00:36:00;;;;;;;;;;;1.30;99.90;;;;;;5095057;28;19928;-68
2021/01/05 00:38:26;;;;;;;;;;;1.30;99.90;;;;;;5094588;28;19977;-68
2021/01/05 00:40:52;;;;;;;;;;;1.30;99.90;;;;;;5092852;28;19924;-68
2021/01/05 00:43:18;;;;;;;;;;;1.30;99.90;;;;;;5094484;28;19924;-69
2021/01/05 00:45:44;;;;;;;;;;;1.30;99.90;;;;;;5094739;28;19935;-69
2021/01/05 00:48:10;;;;;;;;;;;1.30;99.90;;;;;;5094754;28;20307;-69
2021/01/05 00:50:36;;;;;;;;;;;1.30;99.90;;;;;;5093990;28;19931;-68
2021/01/05 00:53:02;;;;;;;;;;;1.30;99.90;;;;;;5094664;28;19925;-68
2021/01/05 00:55:28;;;;;;;;;;;1.30;99.90;;;;;;5094590;28;19981;-68
2021/01/05 00:57:54;;;;;;;;;;;1.30;99.90;;;;;;5094439;28;20273;-68
2021/01/05 01:00:23;;;;;;;;;;;1.30;99.90;;;;;;5094178;28;19924;-68
2021/01/05 01:02:49;;;;;;;;;;;1.30;99.90;;;;;;5094292;28;19936;-69
2021/01/05 01:05:15;;;;;;;;;;;1.40;99.90;;;;;;5075747;28;19924;-69
2021/01/05 01:07:41;;;;;;;;;;;1.30;99.90;;;;;;5074317;28;20277;-69
2021/01/05 01:10:08;;;;;;;;;;;1.40;99.90;;;;;;5083260;28;19931;-69
2021/01/05 01:12:34;;;;;;;;;;;1.30;99.90;;;;;;5094211;28;19928;-69
2021/01/05 01:15:00;;;;;;;;;;;1.30;99.90;;;;;;5094429;28;19924;-69
2021/01/05 01:17:27;;;;;;;;;;;1.30;99.90;;;;;;5093969;28;19977;-69
2021/01/05 01:19:53;;;;;;;;;;;1.30;99.90;;;;;;5093693;28;19977;-69
2021/01/05 01:22:20;;;;;;;;;;;1.30;99.90;;;;;;5094028;28;19931;-70
2021/01/05 01:24:47;;;;;;;;;;;1.30;99.90;;;;;;5093753;28;20320;-67
2021/01/05 01:27:13;;;;;;;;;;;1.30;99.90;;;;;;5093934;28;19943;-67
2021/01/05 01:29:38;;;;;;;;;;;1.30;99.90;;;;;;5093815;28;20293;-68
2021/01/05 01:32:05;;;;;;;;;;;1.30;99.90;;;;;;5093807;28;19928;-68
2021/01/05 01:34:32;;;;;;;;;;;1.40;99.90;;;;;;5081969;28;20434;-68
2021/01/05 01:36:59;;;;;;;;;;;1.30;99.90;;;;;;5072929;28;20018;-67
2021/01/05 01:39:25;;;;;;;;;;;1.30;99.90;;;;;;5073846;28;19929;-68
2021/01/05 01:41:52;;;;;;;;;;;1.30;99.90;;;;;;5073151;28;19925;-69
2021/01/05 01:44:19;;;;;;;;;;;1.30;99.90;;;;;;5073346;28;19931;-68
2021/01/05 01:46:46;;;;;;;;;;;1.30;99.90;;;;;;5073585;28;19925;-69
2021/01/05 01:49:12;;;;;;;;;;;1.30;99.90;;;;;;5073264;28;20385;-68
2021/01/05 01:51:39;;;;;;;;;;;1.30;99.90;;;;;;5085906;28;19924;-67
2021/01/05 01:54:24;;;;;;;;;;;1.30;99.90;;;;;;5093444;28;19931;-68
2021/01/05 01:57:11;;;;;;;;;;;1.30;99.90;;;;;;5093246;28;19924;-68
2021/01/05 01:59:51;;;;;;;;;;;1.30;99.90;;;;;;5093404;28;19924;-68
2021/01/05 02:02:21;;;;;;;;;;;1.30;99.90;;;;;;5093167;28;20281;-68
2021/01/05 02:04:52;;;;;;;;;;;1.40;99.90;;;;;;5091439;28;20377;-68
2021/01/05 02:07:36;;;;;;;;;;;1.40;99.90;;;;;;5093344;28;20356;-68
2021/01/05 02:10:10;;;;;;;;;;;1.40;99.90;;;;;;5090365;28;19924;-68
2021/01/05 02:12:38;;;;;;;;;;;1.30;99.90;;;;;;5092936;28;19931;-68
2021/01/05 02:15:11;;;;;;;;;;;1.30;99.90;;;;;;5093117;28;19928;-68
2021/01/05 02:17:48;;;;;;;;;;;1.40;99.90;;;;;;5092589;28;19924;-68
2021/01/05 02:20:16;;;;;;;;;;;1.40;99.90;;;;;;5092439;28;19924;-68
2021/01/05 02:22:46;;;;;;;;;;;1.30;99.90;;;;;;5092649;28;19924;-68
2021/01/05 02:25:17;;;;;;;;;;;1.30;99.90;;;;;;5092776;28;19946;-68
2021/01/05 02:27:46;;;;;;;;;;;1.30;99.90;;;;;;5080584;28;19993;-68
2021/01/05 02:30:15;;;;;;;;;;;1.30;99.90;;;;;;5072313;28;19924;-68
2021/01/05 02:32:45;;;;;;;;;;;1.30;99.90;;;;;;5082723;28;19924;-69
2021/01/05 02:35:17;;;;;;;;;;;1.30;99.90;;;;;;5092790;28;19928;-69
2021/01/05 02:37:50;;;;;;;;;;;1.30;99.90;;;;;;5092598;28;19946;-69
2021/01/05 02:40:37;;;;;;;;;;;1.40;99.90;;;;;;5092549;28;19977;-68
2021/01/05 02:43:22;;;;;;;;;;;1.30;99.90;;;;;;5092685;28;19932;-69
2021/01/05 02:45:59;;;;;;;;;;;1.30;99.90;;;;;;5092444;28;19924;-69
2021/01/05 02:48:38;;;;;;;;;;;1.30;99.90;;;;;;5092251;28;19924;-69
2021/01/05 02:51:17;;;;;;;;;;;1.30;99.90;;;;;;5091619;28;19929;-69
2021/01/05 02:53:58;;;;;;;;;;;1.20;99.90;;;;;;5091725;28;20361;-69
2021/01/05 02:56:39;;;;;;;;;;;1.30;99.90;;;;;;5091619;28;19928;-69
2021/01/05 02:59:29;;;;;;;;;;;1.30;99.90;;;;;;5089462;28;21286;-68
2021/01/05 03:02:22;;;;;;;;;;;1.30;99.90;;;;;;5073567;28;19970;-68
2021/01/05 03:04:48;;;;;;;;;;;1.30;99.90;;;;;;5072166;28;20365;-68
2021/01/05 03:07:15;;;;;;;;;;;1.30;99.90;;;;;;5072190;28;19936;-68
2021/01/05 03:10:07;;;;;;;;;;;1.30;99.90;;;;;;5072209;28;19951;-68
2021/01/05 03:12:41;;;;;;;;;;;1.30;99.90;;;;;;5072061;28;19964;-68
2021/01/05 03:15:25;;;;;;;;;;;1.30;99.90;;;;;;5072120;28;19924;-68
2021/01/05 03:17:56;;;;;;;;;;;1.30;99.90;;;;;;5072168;28;19925;-67
2021/01/05 03:20:25;;;;;;;;;;;1.30;99.90;;;;;;5071847;28;19967;-67
2021/01/05 03:22:53;;;;;;;;;;;1.30;99.90;;;;;;5071935;28;19970;-68
2021/01/05 03:25:20;;;;;;;;;;;1.30;99.90;;;;;;5071948;28;20400;-68
2021/01/05 03:27:46;;;;;;;;;;;1.30;99.90;;;;;;5072000;28;19935;-68
2021/01/05 03:30:15;;;;;;;;;;;1.30;99.90;;;;;;5089808;28;19931;-67
2021/01/05 03:32:42;;;;;;;;;;;1.30;99.90;;;;;;5092101;28;19924;-67
2021/01/05 03:35:08;;;;;;;;;;;1.30;99.90;;;;;;5092176;28;19924;-67
2021/01/05 03:37:34;;;;;;;;;;;1.30;99.90;;;;;;5092110;28;19934;-67
2021/01/05 03:40:00;;;;;;;;;;;1.30;99.90;;;;;;5091704;28;19924;-67
2021/01/05 03:42:26;;;;;;;;;;;1.30;99.90;;;;;;5091887;28;19925;-67
2021/01/05 03:44:52;;;;;;;;;;;1.30;99.90;;;;;;5091706;28;20312;-67
2021/01/05 03:47:18;;;;;;;;;;;1.30;99.90;;;;;;5092107;28;19946;-67
2021/01/05 03:49:45;;;;;;;;;;;1.30;99.90;;;;;;5091661;28;19935;-67
2021/01/05 03:52:11;;;;;;;;;;;1.30;99.90;;;;;;5091858;28;19924;-68
2021/01/05 03:54:37;;;;;;;;;;;1.30;99.90;;;;;;5091813;28;20270;-68
2021/01/05 03:57:03;;;;;;;;;;;1.30;99.90;;;;;;5085079;28;19929;-68
2021/01/05 03:59:29;;;;;;;;;;;1.30;99.90;;;;;;5073834;28;19924;-68
2021/01/05 04:01:55;;;;;;;;;;;1.30;99.90;;;;;;5081981;28;19930;-67
2021/01/05 04:04:21;;;;;;;;;;;1.30;99.90;;;;;;5095372;28;19977;-68
2021/01/05 04:06:48;;;;;;;;;;;1.20;99.90;;;;;;5088933;28;19947;-68
2021/01/05 04:09:15;;;;;;;;;;;1.30;99.90;;;;;;5075115;28;19958;-68
2021/01/05 04:11:41;;;;;;;;;;;1.30;99.90;;;;;;5075012;28;19931;-68
2021/01/05 04:14:07;;;;;;;;;;;1.30;99.90;;;;;;5094785;28;19924;-68
2021/01/05 04:16:33;;;;;;;;;;;1.30;99.90;;;;;;5095088;28;20367;-68
2021/01/05 04:18:59;;;;;;;;;;;1.30;99.90;;;;;;5094942;28;19924;-68
2021/01/05 04:21:25;;;;;;;;;;;1.30;99.90;;;;;;5094555;28;19960;-68
2021/01/05 04:23:52;;;;;;;;;;;1.30;99.90;;;;;;5094912;28;19924;-68
2021/01/05 04:26:18;;;;;;;;;;;1.30;99.90;;;;;;5095236;28;20300;-68
2021/01/05 04:28:44;;;;;;;;;;;1.20;99.90;;;;;;5094987;28;19924;-68
2021/01/05 04:31:10;;;;;;;;;;;1.20;99.90;;;;;;5094817;28;19931;-68
2021/01/05 04:33:36;;;;;;;;;;;1.30;99.90;;;;;;5095095;28;19977;-68
2021/01/05 04:36:02;;;;;;;;;;;1.30;99.90;;;;;;5094942;28;20384;-68
2021/01/05 04:38:28;;;;;;;;;;;1.20;99.90;;;;;;5094686;28;19974;-71
2021/01/05 04:40:55;;;;;;;;;;;1.30;99.90;;;;;;5088019;28;20289;-71
2021/01/05 04:43:24;;;;;;;;;;;1.20;99.90;;;;;;5074601;28;19924;-71
2021/01/05 04:45:53;;;;;;;;;;;1.30;99.90;;;;;;5074534;28;19940;-71
2021/01/05 04:48:32;;;;;;;;;;;1.30;99.90;;;;;;5074323;28;19931;-71
2021/01/05 04:50:59;;;;;;;;;;;1.20;99.90;;;;;;5075101;28;19925;-69
2021/01/05 04:53:29;;;;;;;;;;;1.20;99.90;;;;;;5074384;28;19925;-68
2021/01/05 04:55:58;;;;;;;;;;;1.30;99.90;;;;;;5074569;28;19924;-69
2021/01/05 04:58:26;;;;;;;;;;;1.30;99.90;;;;;;5074251;28;19924;-68
2021/01/05 05:00:53;;;;;;;;;;;1.30;99.90;;;;;;5073756;28;19932;-67
2021/01/05 05:03:28;;;;;;;;;;;1.30;99.90;;;;;;5073902;28;19924;-67
2021/01/05 05:06:01;;;;;;;;;;;1.20;99.90;;;;;;5074227;28;19947;-67
2021/01/05 05:08:37;;;;;;;;;;;1.30;99.90;;;;;;5074377;28;19924;-67
2021/01/05 05:11:06;;;;;;;;;;;1.20;99.90;;;;;;5093617;28;19946;-67
2021/01/05 05:13:35;;;;;;;;;;;1.30;99.90;;;;;;5094165;28;19931;-67
2021/01/05 05:16:06;;;;;;;;;;;1.30;99.90;;;;;;5083778;28;19978;-67
2021/01/05 05:18:36;;;;;;;;;;;1.30;99.90;;;;;;5074027;28;19924;-66
2021/01/05 05:21:20;;;;;;;;;;;1.30;99.90;;;;;;5073514;28;19931;-67
2021/01/05 05:23:51;;;;;;;;;;;1.30;99.90;;;;;;5073413;28;19924;-68
2021/01/05 05:26:22;;;;;;;;;;;1.30;99.90;;;;;;5073707;28;19924;-67
2021/01/05 05:28:50;;;;;;;;;;;1.30;99.90;;;;;;5073890;28;19925;-67
2021/01/05 05:31:18;;;;;;;;;;;1.30;99.90;;;;;;5073344;28;19925;-69
2021/01/05 05:33:44;;;;;;;;;;;1.30;99.90;;;;;;5092893;28;19966;-67
2021/01/05 05:36:19;;;;;;;;;;;1.30;99.90;;;;;;5094037;28;19928;-65
2021/01/05 05:38:52;;;;;;;;;;;1.30;99.90;;;;;;5093663;28;19934;-66
2021/01/05 05:41:25;;;;;;;;;;;1.30;99.90;;;;;;5093289;28;19955;-66
2021/01/05 05:43:57;;;;;;;;;;;1.30;99.90;;;;;;5093713;28;19937;-66
2021/01/05 05:46:26;;;;;;;;;;;1.30;99.90;;;;;;5093297;28;20332;-68
2021/01/05 05:48:55;;;;;;;;;;;1.30;99.90;;;;;;5093500;28;19924;-69
2021/01/05 05:51:25;;;;;;;;;;;1.30;99.90;;;;;;5093064;28;20004;-68
2021/01/05 05:53:54;;;;;;;;;;;1.30;99.90;;;;;;5093635;28;19924;-69
2021/01/05 05:56:27;;;;;;;;;;;1.30;99.90;;;;;;5093256;28;19969;-68
2021/01/05 05:58:54;;;;;;;;;;;1.30;99.90;;;;;;5093346;28;19947;-68
2021/01/05 06:01:25;;;;;;;;;;;1.40;99.90;;;;;;5075942;28;19931;-69
2021/01/05 06:03:51;;;;;;;;;;;1.40;99.90;;;;;;5073165;28;19948;-69
2021/01/05 06:06:18;;;;;;;;;;;1.40;99.90;;;;;;5073163;28;19924;-69
2021/01/05 06:08:44;;;;;;;;;;;1.40;99.90;;;;;;5079901;28;19924;-69
2021/01/05 06:11:10;;;;;;;;;;;1.40;99.90;;;;;;5092949;28;19924;-69
2021/01/05 06:13:37;;;;;;;;;;;1.40;99.90;;;;;;5093163;28;19924;-69
2021/01/05 06:16:03;;;;;;;;;;;1.40;99.90;;;;;;5093100;28;19924;-69
2021/01/05 06:18:29;;;;;;;;;;;1.40;99.90;;;;;;5092776;28;20395;-69
2021/01/05 06:20:55;;;;;;;;;;;1.40;99.90;;;;;;5090171;28;19924;-71
2021/01/05 06:23:21;;;;;;;;;;;1.40;99.90;;;;;;5080054;28;19928;-72
2021/01/05 06:25:47;;;;;;;;;;;1.40;99.90;;;;;;5073945;28;19932;-71
2021/01/05 06:28:13;;;;;;;;;;;1.40;99.90;;;;;;5072574;28;20373;-71
2021/01/05 06:30:40;;;;;;;;;;;1.40;99.90;;;;;;5074977;28;19932;-71
2021/01/05 06:33:06;;;;;;;;;;;1.40;99.90;;;;;;5077916;28;20296;-72
2021/01/05 06:35:33;;;;;;;;;;;1.40;99.90;;;;;;5089007;28;19928;-72
2021/01/05 06:37:59;;;;;;;;;;;1.40;99.90;;;;;;5081311;28;19924;-72
2021/01/05 06:40:25;;;;;;;;;;;1.40;99.90;;;;;;5072248;28;19929;-68
2021/01/05 06:42:52;;;;;;;;;;;1.40;99.90;;;;;;5072490;28;19924;-69
2021/01/05 06:45:19;;;;;;;;;;;1.40;99.90;;;;;;5073565;28;19925;-68
2021/01/05 06:47:46;;;;;;;;;;;1.40;99.90;;;;;;5072295;28;19978;-67
2021/01/05 06:50:13;;;;;;;;;;;1.40;99.90;;;;;;5072265;28;19924;-67
2021/01/05 06:52:39;;;;;;;;;;;1.40;99.90;;;;;;5075532;28;20345;-67
2021/01/05 06:55:06;;;;;;;;;;;1.40;99.90;;;;;;5092587;28;19928;-67
2021/01/05 06:57:32;;;;;;;;;;;1.40;99.90;;;;;;5092439;28;19931;-67
2021/01/05 06:59:58;;;;;;;;;;;1.30;99.90;;;;;;5091918;28;19924;-67
2021/01/05 07:02:24;;;;;;;;;;;1.40;99.90;;;;;;5083201;28;19990;-68
2021/01/05 07:04:50;;;;;;;;;;;1.40;99.90;;;;;;5075591;28;20015;-68
2021/01/05 07:07:16;;;;;;;;;;;1.40;99.90;;;;;;5091702;28;19924;-67
2021/01/05 07:09:42;;;;;;;;;;;1.40;99.90;;;;;;5092205;28;20412;-70
2021/01/05 07:12:09;;;;;;;;;;;1.40;99.90;;;;;;5092213;28;19924;-70
2021/01/05 07:14:35;;;;;;;;;;;1.40;99.90;;;;;;5092132;28;19954;-70
2021/01/05 07:17:01;;;;;;;;;;;1.40;99.90;;;;;;5091732;28;19924;-74
2021/01/05 07:19:27;;;;;;;;;;;1.40;99.90;;;;;;5092409;28;19924;-73
2021/01/05 07:21:53;;;;;;;;;;;1.40;99.90;;;;;;5088306;28;20407;-73
2021/01/05 07:24:19;;;;;;;;;;;1.40;99.90;;;;;;5072165;28;19987;-72
2021/01/05 07:26:47;;;;;;;;;;;1.40;99.90;;;;;;5071969;28;19924;-68
2021/01/05 07:29:14;;;;;;;;;;;1.40;99.90;;;;;;5071793;28;19925;-69
2021/01/05 07:31:39;;;;;;;;;;;1.40;99.90;;;;;;5083823;28;19924;-69
2021/01/05 07:34:06;;;;;;;;;;;1.40;99.90;;;;;;5083627;28;19934;-69
2021/01/05 07:36:33;;;;;;;;;;;1.40;99.90;;;;;;5076001;28;19995;-69
2021/01/05 07:39:00;;;;;;;;;;;1.40;99.90;;;;;;5075777;28;19925;-68
2021/01/05 07:41:26;;;;;;;;;;;1.40;99.90;;;;;;5090534;28;19970;-67
2021/01/05 07:43:52;;;;;;;;;;;1.40;99.90;;;;;;5081453;28;19991;-67
2021/01/05 07:46:21;;;;;;;;;;;1.40;99.90;;;;;;5094438;28;20328;-68
2021/01/05 07:48:47;;;;;;;;;;;1.40;99.90;;;;;;5096113;28;19928;-69
2021/01/05 07:51:13;;;;;;;;;;;1.40;99.90;;;;;;5095340;28;20445;-69
2021/01/05 07:53:39;;;;;;;;;;;1.40;99.90;;;;;;5095646;28;19924;-70
2021/01/05 07:56:05;;;;;;;;;;;1.40;99.90;;;;;;5095710;28;20339;-70
2021/01/05 07:58:31;;;;;;;;;;;1.40;99.90;;;;;;5095341;28;19931;-70
2021/01/05 08:00:57;;;;;;;;;;;1.40;99.90;;;;;;5094436;28;19924;-69
2021/01/05 08:03:23;;;;;;;;;;;1.40;99.90;;;;;;5095811;28;19924;-68
2021/01/05 08:05:49;;;;;;;;;;;1.50;99.90;;;;;;5095202;28;19969;-69
2021/01/05 08:08:15;;;;;;;;;;;1.40;99.90;;;;;;5095585;28;19928;-70
2021/01/05 08:10:41;;;;;;;;;;;1.50;99.90;;;;;;5084620;28;19925;-69
2021/01/05 08:13:09;;;;;;;;;;;1.50;99.90;;;;;;5080748;28;19924;-68
2021/01/05 08:15:35;;;;;;;;;;;1.50;99.90;;;;;;5084276;28;20412;-67
2021/01/05 08:18:02;;;;;;;;;;;1.50;99.90;;;;;;5095481;28;19930;-69
2021/01/05 08:20:29;;;;;;;;;;;1.50;99.90;;;;;;5093437;28;19981;-68
2021/01/05 08:22:55;;;;;;;;;;;1.50;99.90;;;;;;5094812;28;19928;-68
2021/01/05 08:25:22;;;;;;;;;;;1.50;99.90;;;;;;5086904;28;19928;-69
2021/01/05 08:27:48;;;;;;;;;;;1.50;99.90;;;;;;5074789;28;19925;-69
2021/01/05 08:30:17;;;;;;;;;;;1.60;99.90;;;;;;5079740;28;20018;-67
2021/01/05 08:32:43;;;;;;;;;;;1.60;99.90;;;;;;5094606;28;19924;-68
2021/01/05 08:35:10;;;;;;;;;;;1.60;99.90;;;;;;5095216;28;19998;-70
2021/01/05 08:37:36;;;;;;;;;;;1.70;99.90;;;;;;5094965;28;19968;-72
2021/01/05 08:40:03;;;;;;;;;;;1.70;99.90;;;;;;5094392;28;19924;-69
2021/01/05 08:42:29;;;;;;;;;;;1.70;99.90;;;;;;5094670;28;20419;-69
2021/01/05 08:44:55;;;;;;;;;;;1.70;99.90;;;;;;5093951;28;19932;-69
2021/01/05 08:47:21;;;;;;;;;;;1.80;99.90;;;;;;5094540;28;19969;-69
2021/01/05 08:49:47;;;;;;;;;;;1.80;99.90;;;;;;5092992;28;19931;-69
2021/01/05 08:52:13;;;;;;;;;;;1.80;99.90;;;;;;5074433;28;20295;-69
2021/01/05 08:54:39;;;;;;;;;;;1.80;99.90;;;;;;5088287;28;19977;-68
2021/01/05 08:57:05;;;;;;;;;;;1.80;99.90;;;;;;5094823;28;19931;-69
2021/01/05 08:59:31;;;;;;;;;;;1.80;99.90;;;;;;5094017;28;19947;-70
2021/01/05 09:01:57;;;;;;;;;;;1.80;99.90;;;;;;5094327;28;20384;-69
2021/01/05 09:04:24;;;;;;;;;;;1.80;99.90;;;;;;5094293;28;19924;-69
2021/01/05 09:06:55;;;;;;;;;;;1.90;99.90;;;;;;5075974;28;19971;-69
2021/01/05 09:09:20;;;;;;;;;;;1.90;99.90;;;;;;5074093;28;19954;-70
2021/01/05 09:11:50;;;;;;;;;;;1.90;99.90;;;;;;5075630;28;20460;-69
2021/01/05 09:14:16;;;;;;;;;;;1.90;99.90;;;;;;5094596;28;19924;-69
2021/01/05 09:16:42;;;;;;;;;;;1.90;99.90;;;;;;5094315;28;20311;-69
2021/01/05 09:19:08;;;;;;;;;;;1.90;99.90;;;;;;5094190;28;19924;-69
2021/01/05 09:21:35;;;;;;;;;;;1.90;99.90;;;;;;5090186;28;20377;-68
2021/01/05 09:24:02;;;;;;;;;;;1.90;99.90;;;;;;5073750;28;19928;-67
2021/01/05 09:26:29;;;;;;;;;;;1.90;99.90;;;;;;5073971;28;19936;-69
2021/01/05 09:28:55;;;;;;;;;;;1.90;99.90;;;;;;5073833;28;19928;-69
2021/01/05 09:31:21;;;;;;;;;;;1.90;99.90;;;;;;5074545;28;19925;-69
2021/01/05 09:33:48;;;;;;;;;;;1.90;99.90;;;;;;5092668;28;19924;-69
2021/01/05 09:36:14;;;;;;;;;;;1.90;99.90;;;;;;5093248;28;19924;-69
2021/01/05 09:38:42;;;;;;;;;;;1.90;99.90;;;;;;5093329;28;19924;-70
2021/01/05 09:41:18;;;;;;;;;;;1.90;99.90;;;;;;5093535;28;19931;-73
2021/01/05 09:43:43;;;;;;;;;;;1.90;99.90;;;;;;5093865;28;19931;-70
2021/01/05 09:46:10;;;;;;;;;;;1.90;99.90;;;;;;5080633;28;19925;-68
2021/01/05 09:48:36;;;;;;;;;;;1.90;99.90;;;;;;5073436;28;19931;-67
2021/01/05 09:51:02;;;;;;;;;;;1.90;99.90;;;;;;5084946;28;19928;-67
2021/01/05 09:53:28;;;;;;;;;;;1.90;99.90;;;;;;5093373;28;19928;-67
2021/01/05 09:55:55;;;;;;;;;;;2.00;99.90;;;;;;5091811;28;19993;-68
2021/01/05 09:58:21;;;;;;;;;;;1.80;99.90;;;;;;5072865;28;19924;-68
2021/01/05 10:00:47;;;;;;;;;;;1.90;99.90;;;;;;5072822;28;20377;-69
2021/01/05 10:03:13;;;;;;;;;;;1.90;99.90;;;;;;5073061;28;19925;-69
2021/01/05 10:05:39;;;;;;;;;;;1.90;99.90;;;;;;5074375;28;20369;-69
2021/01/05 10:08:05;;;;;;;;;;;1.80;99.90;;;;;;5084041;28;19935;-69
2021/01/05 10:10:31;;;;;;;;;;;1.90;99.90;;;;;;5091675;28;20407;-70
2021/01/05 10:12:58;;;;;;;;;;;1.90;99.90;;;;;;5089075;28;20018;-68
2021/01/05 10:15:24;;;;;;;;;;;1.90;99.90;;;;;;5082408;28;19924;-65
2021/01/05 10:17:51;;;;;;;;;;;1.90;99.90;;;;;;5088802;28;20273;-65
2021/01/05 10:20:19;;;;;;;;;;;1.90;99.90;;;;;;5087616;28;19932;-66
2021/01/05 10:22:44;;;;;;;;;;;1.90;99.90;;;;;;5087758;28;19928;-64
2021/01/05 10:25:12;;;;;;;;;;;1.90;99.90;;;;;;5093176;28;19931;-65
2021/01/05 10:27:38;;;;;;;;;;;1.90;99.90;;;;;;5093079;28;19924;-65
2021/01/05 10:30:06;;;;;;;;;;;2.00;99.90;;;;;;5083723;28;19925;-65
2021/01/05 10:32:32;;;;;;;;;;;1.90;99.90;;;;;;5072453;28;19924;-69
2021/01/05 10:34:59;;;;;;;;;;;2.00;99.90;;;;;;5078990;28;19977;-70
2021/01/05 10:37:25;;;;;;;;;;;2.00;99.90;;;;;;5092017;28;20324;-69
2021/01/05 10:39:51;;;;;;;;;;;2.00;99.90;;;;;;5072347;28;19924;-67
2021/01/05 10:42:17;;;;;;;;;;;2.00;99.90;;;;;;5078016;28;19931;-68
2021/01/05 10:44:43;;;;;;;;;;;2.00;99.90;;;;;;5075165;28;19924;-69
2021/01/05 10:47:14;;;;;;;;;;;2.00;99.90;;;;;;5072342;28;19924;-70
2021/01/05 10:49:40;;;;;;;;;;;2.00;99.90;;;;;;5073302;28;19928;-68
2021/01/05 10:52:06;;;;;;;;;;;2.00;99.90;;;;;;5081221;28;19928;-68
2021/01/05 10:54:32;;;;;;;;;;;2.10;99.90;;;;;;5092413;28;20001;-69
2021/01/05 10:56:59;;;;;;;;;;;2.10;99.90;;;;;;5092294;28;19924;-69
2021/01/05 10:59:26;;;;;;;;;;;2.10;99.90;;;;;;5092366;28;19928;-69
2021/01/05 11:01:52;;;;;;;;;;;2.10;99.90;;;;;;5091676;28;19927;-69
2021/01/05 11:04:19;;;;;;;;;;;2.10;99.90;;;;;;5092089;28;20403;-69
2021/01/05 11:06:52;;;;;;;;;;;2.10;99.90;;;;;;5092187;28;19935;-69
2021/01/05 11:09:18;;;;;;;;;;;2.10;99.90;;;;;;5092114;28;19931;-69
2021/01/05 11:11:44;;;;;;;;;;;2.10;99.90;;;;;;5091848;28;19928;-69
2021/01/05 11:14:10;;;;;;;;;;;2.20;99.90;;;;;;5092065;28;19928;-69
2021/01/05 11:16:36;;;;;;;;;;;2.20;99.90;;;;;;5092356;28;20434;-69
2021/01/05 11:19:02;;;;;;;;;;;2.20;99.90;;;;;;5092304;28;19931;-69
2021/01/05 11:21:29;;;;;;;;;;;2.20;99.90;;;;;;5091987;28;20381;-69
2021/01/05 11:23:55;;;;;;;;;;;2.10;99.90;;;;;;5092233;28;20315;-69
2021/01/05 11:26:21;;;;;;;;;;;2.10;99.90;;;;;;5092184;28;19924;-69
2021/01/05 11:28:47;;;;;;;;;;;2.20;99.90;;;;;;5092005;28;20014;-69
2021/01/05 11:31:13;;;;;;;;;;;2.10;99.90;;;;;;5091921;28;19935;-69
2021/01/05 11:33:39;;;;;;;;;;;2.10;99.90;;;;;;5092242;28;20567;-69
2021/01/05 11:36:05;;;;;;;;;;;2.10;99.90;;;;;;5091956;28;19950;-69
2021/01/05 11:38:32;;;;;;;;;;;2.20;99.90;;;;;;5091899;28;19970;-69
2021/01/05 11:40:58;;;;;;;;;;;2.10;99.90;;;;;;5091735;28;19925;-69
2021/01/05 11:43:24;;;;;;;;;;;2.20;99.90;;;;;;5091942;28;19928;-69
2021/01/05 11:45:50;;;;;;;;;;;2.20;99.90;;;;;;5092217;28;19935;-69
2021/01/05 11:48:16;;;;;;;;;;;2.30;99.90;;;;;;5092153;28;19930;-69
2021/01/05 11:50:42;;;;;;;;;;;2.20;99.90;;;;;;5091776;28;19950;-69
2021/01/05 11:53:08;;;;;;;;;;;2.20;99.90;;;;;;5091962;28;19924;-68
2021/01/05 11:55:35;;;;;;;;;;;2.30;99.90;;;;;;5080980;28;20400;-69
2021/01/05 11:58:01;;;;;;;;;;;2.30;99.90;;;;;;5071613;28;19931;-70
2021/01/05 12:00:27;;;;;;;;;;;2.20;99.90;;;;;;5071509;28;19924;-70
2021/01/05 12:02:53;;;;;;;;;;;2.10;99.90;;;;;;5071947;28;19932;-69
2021/01/05 12:05:19;;;;;;;;;;;2.20;99.90;;;;;;5071568;28;19925;-69
2021/01/05 12:07:45;;;;;;;;;;;2.10;99.90;;;;;;5074057;28;19931;-69
2021/01/05 12:10:11;;;;;;;;;;;2.10;99.90;;;;;;5091421;28;19928;-69
2021/01/05 12:12:38;;;;;;;;;;;2.10;99.90;;;;;;5091520;28;19924;-69
2021/01/05 12:15:05;;;;;;;;;;;2.20;99.90;;;;;;5091864;28;19928;-70
2021/01/05 12:17:33;;;;;;;;;;;2.10;99.90;;;;;;5087386;28;19924;-69
2021/01/05 12:19:59;;;;;;;;;;;2.20;99.90;;;;;;5072360;28;19931;-69
2021/01/05 12:22:25;;;;;;;;;;;2.20;99.90;;;;;;5075014;28;19925;-70
2021/01/05 12:24:51;;;;;;;;;;;2.20;99.90;;;;;;5092043;28;20304;-69
2021/01/05 12:27:17;;;;;;;;;;;2.20;99.90;;;;;;5094855;28;19939;-69
2021/01/05 12:29:44;;;;;;;;;;;2.20;99.90;;;;;;5095269;28;19924;-69
2021/01/05 12:32:11;;;;;;;;;;;2.20;99.90;;;;;;5095062;28;20314;-69
2021/01/05 12:34:37;;;;;;;;;;;2.20;99.90;;;;;;5095041;28;20269;-69
2021/01/05 12:37:04;;;;;;;;;;;2.20;99.90;;;;;;5094801;28;20033;-67
2021/01/05 12:39:32;;;;;;;;;;;2.10;99.90;;;;;;5093274;28;19924;-68
2021/01/05 12:41:58;;;;;;;;;;;2.10;99.90;;;;;;5094429;28;20065;-68
2021/01/05 12:44:26;;;;;;;;;;;2.20;99.90;;;;;;5076312;28;19986;-68
2021/01/05 12:46:53;;;;;;;;;;;2.20;99.90;;;;;;5074637;28;19925;-69
2021/01/05 12:49:20;;;;;;;;;;;2.20;99.90;;;;;;5074641;28;19924;-69
2021/01/05 12:51:46;;;;;;;;;;;2.20;99.90;;;;;;5074256;28;19990;-69
2021/01/05 12:54:16;;;;;;;;;;;2.10;99.90;;;;;;5074303;28;19928;-69
2021/01/05 12:56:42;;;;;;;;;;;2.10;99.90;;;;;;5075856;28;19924;-68
2021/01/05 12:59:08;;;;;;;;;;;2.10;99.90;;;;;;5085450;28;20019;-70
2021/01/05 13:01:34;;;;;;;;;;;2.10;99.90;;;;;;5074073;28;19924;-71
2021/01/05 13:04:01;;;;;;;;;;;2.10;99.90;;;;;;5074292;28;20389;-71
2021/01/05 13:06:30;;;;;;;;;;;1.90;99.90;;;;;;5074399;28;19963;-69
2021/01/05 13:08:56;;;;;;;;;;;2.00;99.90;;;;;;5074196;28;20304;-69
2021/01/05 13:11:23;;;;;;;;;;;2.10;99.90;;;;;;5074075;28;19932;-69
2021/01/05 13:13:49;;;;;;;;;;;2.10;99.90;;;;;;5073935;28;20048;-70
2021/01/05 13:16:16;;;;;;;;;;;2.00;99.90;;;;;;5073848;28;19943;-68
2021/01/05 13:18:42;;;;;;;;;;;2.00;99.90;;;;;;5073978;28;19931;-68
2021/01/05 13:21:09;;;;;;;;;;;2.10;99.90;;;;;;5073768;28;19924;-68
2021/01/05 13:23:35;;;;;;;;;;;2.10;99.90;;;;;;5073819;28;19924;-69
2021/01/05 13:26:01;;;;;;;;;;;2.00;99.90;;;;;;5074342;28;19978;-69
2021/01/05 13:28:27;;;;;;;;;;;2.10;99.90;;;;;;5073931;28;20430;-70
2021/01/05 13:30:53;;;;;;;;;;;2.00;99.90;;;;;;5073254;28;19925;-68
2021/01/05 13:33:19;;;;;;;;;;;2.10;99.90;;;;;;5073667;28;19925;-69
2021/01/05 13:35:46;;;;;;;;;;;2.10;99.90;;;;;;5073732;28;19951;-69
2021/01/05 13:38:12;;;;;;;;;;;2.10;99.90;;;;;;5074932;28;19925;-71
2021/01/05 13:40:39;;;;;;;;;;;2.10;99.90;;;;;;5073368;28;19929;-70
2021/01/05 13:43:05;;;;;;;;;;;2.10;99.90;;;;;;5073643;28;20351;-69
2021/01/05 13:45:31;;;;;;;;;;;2.20;99.90;;;;;;5073425;28;19924;-69
2021/01/05 13:47:57;;;;;;;;;;;2.10;99.90;;;;;;5073538;28;19978;-68
2021/01/05 13:50:23;;;;;;;;;;;2.10;99.90;;;;;;5073210;28;19924;-68
2021/01/05 13:52:50;;;;;;;;;;;2.10;99.90;;;;;;5073206;28;19925;-67
2021/01/05 13:55:17;;;;;;;;;;;2.10;99.90;;;;;;5073361;28;19929;-68
2021/01/05 13:57:46;;;;;;;;;;;2.10;99.90;;;;;;5079452;28;19969;-68
2021/01/05 14:00:13;;;;;;;;;;;2.10;99.90;;;;;;5093096;28;20381;-68
2021/01/05 14:02:39;;;;;;;;;;;2.10;99.90;;;;;;5091382;28;19931;-68
2021/01/05 14:05:06;;;;;;;;;;;2.20;99.90;;;;;;5093304;28;19923;-69
2021/01/05 14:07:32;;;;;;;;;;;2.20;99.90;;;;;;5093487;28;19924;-71
2021/01/05 14:09:57;;;;;;;;;;;2.20;99.90;;;;;;5093179;28;19928;-69
2021/01/05 14:12:25;;;;;;;;;;;2.20;99.90;;;;;;5093183;28;20411;-69
2021/01/05 14:14:51;;;;;;;;;;;2.30;99.90;;;;;;5093239;28;19935;-69
2021/01/05 14:17:21;;;;;;;;;;;2.30;99.90;;;;;;5093204;28;19924;-69
2021/01/05 14:19:48;;;;;;;;;;;2.30;99.90;;;;;;5092532;28;20384;-69
2021/01/05 14:22:14;;;;;;;;;;;2.50;99.90;;;;;;5093034;28;20277;-69
2021/01/05 14:24:40;;;;;;;;;;;2.50;99.90;;;;;;5093203;28;19925;-71
2021/01/05 14:27:07;;;;;;;;;;;2.50;99.90;;;;;;5093169;28;19935;-70
2021/01/05 14:29:34;;;;;;;;;;;2.50;99.90;;;;;;5092867;28;20024;-70
2021/01/05 14:32:02;;;;;;;;;;;2.50;99.90;;;;;;5092604;28;19928;-71
2021/01/05 14:34:28;;;;;;;;;;;2.50;99.90;;;;;;5092680;28;19932;-70